Time;durP1;ratioP1;P1;durP2;ratioP2;P2;SDS_P1;SDS_P2;PMS_P1;PMS_P2;Temp;Humidity;BMP_temperature;BMP_pressure;BME280_temperature;BME280_humidity;BME280_pressure;Samples;Min_cycle;Max_cycle;Signal;HPM_P1;HPM_P2
2023/05/03 00:03:44;;;;;;;1.48;1.38;;;;;;;;;;10055543;28;20050;-70
2023/05/03 00:08:38;;;;;;;2.70;2.45;;;;;;;;;;10038340;28;20082;-71
2023/05/03 00:13:32;;;;;;;1.50;1.40;;;;;;;;;;10038638;28;20088;-69
2023/05/03 00:18:27;;;;;;;1.83;1.45;;;;;;;;;;10044936;28;20049;-70
2023/05/03 00:23:21;;;;;;;1.90;1.20;;;;;;;;;;10037032;28;20065;-69
2023/05/03 00:28:15;;;;;;;1.45;1.35;;;;;;;;;;10043270;28;20152;-70
2023/05/03 00:33:08;;;;;;;1.58;1.48;;;;;;;;;;10044013;28;20511;-69
2023/05/03 00:38:01;;;;;;;1.67;1.58;;;;;;;;;;10051060;28;20046;-71
2023/05/03 00:42:53;;;;;;;1.50;1.40;;;;;;;;;;10046191;28;20041;-71
2023/05/03 00:47:46;;;;;;;1.75;1.52;;;;;;;;;;10061963;28;20555;-71
2023/05/03 00:52:40;;;;;;;1.73;1.63;;;;;;;;;;10059425;28;20104;-71
2023/05/03 00:57:33;;;;;;;2.17;1.98;;;;;;;;;;10056692;28;20041;-71
2023/05/03 01:02:27;;;;;;;2.72;2.53;;;;;;;;;;10058048;28;20050;-71
2023/05/03 01:07:43;;;;;;;4.75;3.50;;;;;;;;;;10043434;28;20053;-69
2023/05/03 01:13:08;;;;;;;3.40;3.10;;;;;;;;;;10050836;28;20057;-70
2023/05/03 01:18:23;;;;;;;3.65;3.30;;;;;;;;;;10044689;28;20054;-71
2023/05/03 01:23:45;;;;;;;6.40;3.88;;;;;;;;;;10036630;28;20064;-70
2023/05/03 01:28:38;;;;;;;4.18;3.58;;;;;;;;;;10029931;28;20050;-70
2023/05/03 01:33:43;;;;;;;2.95;2.75;;;;;;;;;;10010365;28;20053;-70
2023/05/03 01:38:39;;;;;;;3.20;2.90;;;;;;;;;;10049967;28;20050;-70
2023/05/03 01:43:33;;;;;;;2.85;2.50;;;;;;;;;;10041916;28;20104;-70
2023/05/03 01:48:26;;;;;;;2.90;2.60;;;;;;;;;;10053625;28;20424;-70
2023/05/03 01:53:20;;;;;;;3.42;2.67;;;;;;;;;;10029320;28;20065;-70
2023/05/03 01:58:13;;;;;;;4.38;2.60;;;;;;;;;;10050575;28;20062;-69
2023/05/03 02:03:06;;;;;;;2.45;2.17;;;;;;;;;;10060694;28;20123;-71
2023/05/03 02:08:00;;;;;;;7.07;4.25;;;;;;;;;;10046333;28;20054;-70
2023/05/03 02:12:53;;;;;;;3.38;3.08;;;;;;;;;;10039630;28;20105;-69
2023/05/03 02:17:48;;;;;;;3.63;3.28;;;;;;;;;;10040303;28;20111;-70
2023/05/03 02:22:41;;;;;;;4.20;3.63;;;;;;;;;;10042939;28;20432;-70
2023/05/03 02:27:34;;;;;;;4.13;3.72;;;;;;;;;;10032214;28;20488;-70
2023/05/03 02:32:28;;;;;;;3.75;3.28;;;;;;;;;;10028751;28;20401;-70
2023/05/03 02:37:21;;;;;;;3.45;2.33;;;;;;;;;;10047999;28;20144;-70
2023/05/03 02:42:15;;;;;;;5.97;2.63;;;;;;;;;;10039788;28;20072;-70
2023/05/03 02:47:09;;;;;;;3.63;2.10;;;;;;;;;;10031211;28;20531;-69
2023/05/03 02:52:05;;;;;;;2.33;2.13;;;;;;;;;;10029852;28;20065;-69
2023/05/03 02:57:00;;;;;;;1.77;1.67;;;;;;;;;;10051497;28;20053;-70
2023/05/03 03:01:54;;;;;;;3.95;1.73;;;;;;;;;;10041225;28;20078;-70
2023/05/03 03:06:47;;;;;;;1.98;1.35;;;;;;;;;;10039242;28;20156;-69
2023/05/03 03:11:42;;;;;;;2.55;1.70;;;;;;;;;;10065214;28;20072;-71
2023/05/03 03:16:35;;;;;;;2.15;1.80;;;;;;;;;;10044710;28;20054;-70
2023/05/03 03:21:31;;;;;;;4.43;2.00;;;;;;;;;;10052816;28;20057;-70
2023/05/03 03:26:25;;;;;;;2.38;2.17;;;;;;;;;;10069884;28;20136;-71
2023/05/03 03:31:21;;;;;;;2.85;2.53;;;;;;;;;;10061095;28;20056;-70
2023/05/03 03:36:14;;;;;;;3.05;2.72;;;;;;;;;;10045939;28;20505;-69
2023/05/03 03:41:11;;;;;;;2.60;2.40;;;;;;;;;;10071681;28;20054;-70
2023/05/03 03:46:05;;;;;;;2.15;2.05;;;;;;;;;;10029557;28;20054;-70
2023/05/03 03:50:59;;;;;;;2.28;2.08;;;;;;;;;;10037792;28;20058;-69
2023/05/03 03:55:59;;;;;;;2.88;2.50;;;;;;;;;;10028195;28;20057;-70
2023/05/03 04:00:54;;;;;;;2.75;2.38;;;;;;;;;;10034822;28;20457;-70
2023/05/03 04:05:50;;;;;;;3.15;2.05;;;;;;;;;;10031439;28;20079;-70
2023/05/03 04:10:45;;;;;;;1.92;1.83;;;;;;;;;;10032157;28;20054;-69
2023/05/03 04:15:39;;;;;;;1.88;1.63;;;;;;;;;;10031470;28;20054;-70
2023/05/03 04:20:33;;;;;;;2.35;2.15;;;;;;;;;;10037860;28;20076;-70
2023/05/03 04:25:29;;;;;;;1.85;1.75;;;;;;;;;;10047755;28;20050;-70
2023/05/03 04:30:28;;;;;;;2.30;2.20;;;;;;;;;;10041193;28;20064;-70
2023/05/03 04:35:24;;;;;;;2.22;1.73;;;;;;;;;;10045481;28;20054;-71
2023/05/03 04:40:18;;;;;;;1.50;1.40;;;;;;;;;;10047520;28;20057;-70
2023/05/03 04:45:20;;;;;;;1.70;1.60;;;;;;;;;;10032874;28;20050;-70
2023/05/03 04:50:13;;;;;;;2.13;1.95;;;;;;;;;;10034815;28;20144;-70
2023/05/03 04:55:10;;;;;;;1.73;1.63;;;;;;;;;;10043891;28;20069;-70
2023/05/03 05:00:09;;;;;;;1.50;1.40;;;;;;;;;;10048824;28;20050;-70
2023/05/03 05:05:08;;;;;;;4.18;1.67;;;;;;;;;;10043458;28;20092;-71
2023/05/03 05:10:01;;;;;;;2.85;1.60;;;;;;;;;;10013299;28;20058;-69
2023/05/03 05:14:55;;;;;;;1.50;1.40;;;;;;;;;;10037635;28;20093;-70
2023/05/03 05:19:47;;;;;;;1.35;1.25;;;;;;;;;;10031739;28;20074;-72
2023/05/03 05:24:41;;;;;;;1.77;1.40;;;;;;;;;;10049814;28;20503;-72
2023/05/03 05:29:38;;;;;;;1.50;1.40;;;;;;;;;;10051829;28;20054;-71
2023/05/03 05:34:31;;;;;;;1.13;1.13;;;;;;;;;;10051582;28;20085;-71
2023/05/03 05:39:36;;;;;;;1.35;1.27;;;;;;;;;;10044581;28;20053;-75
2023/05/03 05:44:31;;;;;;;1.00;1.00;;;;;;;;;;10048761;28;20136;-78
2023/05/03 05:49:24;;;;;;;1.20;1.20;;;;;;;;;;10042445;28;20159;-76
2023/05/03 05:54:18;;;;;;;1.00;1.00;;;;;;;;;;10036299;28;20046;-76
2023/05/03 05:59:12;;;;;;;2.38;0.90;;;;;;;;;;10030264;28;20049;-76
2023/05/03 06:04:05;;;;;;;1.10;1.10;;;;;;;;;;10048693;28;20045;-79
2023/05/03 06:08:59;;;;;;;1.20;1.20;;;;;;;;;;10045937;28;20053;-79
2023/05/03 06:14:08;;;;;;;2.67;1.50;;;;;;;;;;10039446;28;20050;-79
2023/05/03 06:19:04;;;;;;;1.40;1.30;;;;;;;;;;10057886;28;20050;-79
2023/05/03 06:23:57;;;;;;;1.73;1.63;;;;;;;;;;10047346;28;20575;-73
2023/05/03 06:28:51;;;;;;;1.90;1.80;;;;;;;;;;10034384;28;20521;-77
2023/05/03 06:33:45;;;;;;;1.60;1.50;;;;;;;;;;10038616;28;20057;-75
2023/05/03 06:38:40;;;;;;;2.90;2.00;;;;;;;;;;10054697;28;20435;-78
2023/05/03 06:43:33;;;;;;;2.00;1.80;;;;;;;;;;10049444;28;20459;-79
2023/05/03 06:48:27;;;;;;;2.10;1.70;;;;;;;;;;10037048;28;20085;-79
2023/05/03 06:53:20;;;;;;;1.80;1.52;;;;;;;;;;10045619;28;20046;-80
2023/05/03 06:58:15;;;;;;;1.92;1.80;;;;;;;;;;10053161;28;20049;-79
2023/05/03 07:03:09;;;;;;;1.77;1.50;;;;;;;;;;10053433;28;20053;-79
2023/05/03 07:08:03;;;;;;;1.63;1.52;;;;;;;;;;10044985;28;20064;-79
2023/05/03 07:12:57;;;;;;;1.35;1.25;;;;;;;;;;10046544;28;20050;-79
2023/05/03 07:17:51;;;;;;;1.67;1.30;;;;;;;;;;10054464;28;20551;-80
2023/05/03 07:22:44;;;;;;;1.40;1.10;;;;;;;;;;10054021;28;20398;-79
2023/05/03 07:27:38;;;;;;;1.23;1.10;;;;;;;;;;10044604;28;20508;-79
2023/05/03 07:32:32;;;;;;;1.20;1.10;;;;;;;;;;10061546;28;20409;-78
2023/05/03 07:37:26;;;;;;;1.23;1.20;;;;;;;;;;10055218;28;20053;-78
2023/05/03 07:42:19;;;;;;;2.33;1.75;;;;;;;;;;10048374;28;20448;-79
2023/05/03 07:47:13;;;;;;;1.45;1.35;;;;;;;;;;10037693;28;20080;-78
2023/05/03 07:52:07;;;;;;;1.38;1.27;;;;;;;;;;10055224;28;20409;-78
2023/05/03 07:57:02;;;;;;;1.60;1.50;;;;;;;;;;10055991;28;20049;-78
2023/05/03 08:01:55;;;;;;;1.50;1.40;;;;;;;;;;10045900;28;20408;-77
2023/05/03 08:06:51;;;;;;;2.72;1.63;;;;;;;;;;10061708;28;20077;-78
2023/05/03 08:11:44;;;;;;;1.60;1.50;;;;;;;;;;10047151;28;20054;-78
2023/05/03 08:16:38;;;;;;;1.30;1.20;;;;;;;;;;10051401;28;20050;-78
2023/05/03 08:21:32;;;;;;;1.17;1.08;;;;;;;;;;10044482;28;20064;-78
2023/05/03 08:26:27;;;;;;;2.15;1.50;;;;;;;;;;10048831;28;20501;-78
2023/05/03 08:31:20;;;;;;;1.70;1.15;;;;;;;;;;10050185;28;20050;-78
2023/05/03 08:36:14;;;;;;;1.40;1.30;;;;;;;;;;10048973;28;20100;-77
2023/05/03 08:41:29;;;;;;;2.10;1.95;;;;;;;;;;10044689;28;20110;-79
2023/05/03 08:46:24;;;;;;;3.53;1.35;;;;;;;;;;10041269;28;20539;-79
2023/05/03 08:51:19;;;;;;;1.20;1.10;;;;;;;;;;10059883;28;20492;-79
2023/05/03 08:56:17;;;;;;;1.50;1.40;;;;;;;;;;10065771;28;20088;-78
2023/05/03 09:01:13;;;;;;;2.53;1.20;;;;;;;;;;10044401;28;20129;-79
2023/05/03 09:06:20;;;;;;;1.85;1.20;;;;;;;;;;10047109;28;20412;-79
2023/05/03 09:11:21;;;;;;;1.48;1.33;;;;;;;;;;10048414;28;20074;-79
2023/05/03 09:16:27;;;;;;;1.02;1.02;;;;;;;;;;10057839;28;20065;-80
2023/05/03 09:21:20;;;;;;;2.35;1.40;;;;;;;;;;10047295;28;20104;-78
2023/05/03 09:26:57;;;;;;;1.33;1.30;;;;;;;;;;10056027;28;20049;-78
2023/05/03 09:31:58;;;;;;;1.38;1.33;;;;;;;;;;10045247;28;20049;-78
2023/05/03 09:36:52;;;;;;;1.85;1.60;;;;;;;;;;10052928;28;20127;-78
2023/05/03 09:41:46;;;;;;;5.75;1.40;;;;;;;;;;10048162;28;20056;-78
2023/05/03 09:46:39;;;;;;;1.60;1.42;;;;;;;;;;10042366;28;20484;-78
2023/05/03 09:51:32;;;;;;;5.60;2.60;;;;;;;;;;10028839;28;20058;-77
2023/05/03 09:56:26;;;;;;;1.52;1.42;;;;;;;;;;10054874;28;20057;-78
2023/05/03 10:01:24;;;;;;;2.25;1.52;;;;;;;;;;10055351;28;20060;-73
2023/05/03 10:06:29;;;;;;;1.48;1.38;;;;;;;;;;10046530;28;20053;-78
2023/05/03 10:11:26;;;;;;;1.60;1.50;;;;;;;;;;10052363;28;20068;-75
2023/05/03 10:16:25;;;;;;;1.60;1.50;;;;;;;;;;10058348;28;20050;-75
2023/05/03 10:21:54;;;;;;;1.70;1.60;;;;;;;;;;10066700;28;20046;-76
2023/05/03 10:26:50;;;;;;;1.52;1.42;;;;;;;;;;10012795;28;20053;-75
2023/05/03 10:31:47;;;;;;;3.55;3.25;;;;;;;;;;10058488;28;20061;-75
2023/05/03 10:36:43;;;;;;;3.95;1.63;;;;;;;;;;10036827;28;20124;-76
2023/05/03 10:41:42;;;;;;;2.63;1.88;;;;;;;;;;10055169;28;20401;-75
2023/05/03 10:46:35;;;;;;;1.63;1.52;;;;;;;;;;10053095;28;20128;-75
2023/05/03 10:51:35;;;;;;;1.70;1.60;;;;;;;;;;10064876;28;20424;-74
2023/05/03 10:56:29;;;;;;;1.00;1.00;;;;;;;;;;10054611;28;20077;-75
2023/05/03 11:01:23;;;;;;;1.70;1.60;;;;;;;;;;10054231;28;20112;-75
2023/05/03 11:06:37;;;;;;;1.02;1.02;;;;;;;;;;10046782;28;20072;-74
2023/05/03 11:11:30;;;;;;;1.80;1.60;;;;;;;;;;10051746;28;20064;-74
2023/05/03 11:16:24;;;;;;;1.48;1.38;;;;;;;;;;10047053;28;20140;-74
2023/05/03 11:21:17;;;;;;;3.72;1.70;;;;;;;;;;10060193;28;20045;-74
2023/05/03 11:26:12;;;;;;;2.55;1.27;;;;;;;;;;10040106;28;20053;-73
2023/05/03 11:31:08;;;;;;;2.30;1.38;;;;;;;;;;10051652;28;20061;-73
2023/05/03 11:36:05;;;;;;;2.17;1.33;;;;;;;;;;10055298;28;20520;-74
2023/05/03 11:41:01;;;;;;;1.27;1.17;;;;;;;;;;10058814;28;20037;-75
2023/05/03 11:45:57;;;;;;;1.33;1.23;;;;;;;;;;10053305;28;20042;-75
2023/05/03 11:50:54;;;;;;;2.20;1.80;;;;;;;;;;10045310;28;20104;-75
2023/05/03 11:55:49;;;;;;;1.65;1.13;;;;;;;;;;10047799;28;20053;-75
2023/05/03 12:01:08;;;;;;;1.42;1.00;;;;;;;;;;10052586;28;20420;-75
2023/05/03 12:06:04;;;;;;;2.60;0.90;;;;;;;;;;10048628;28;20132;-75
2023/05/03 12:10:59;;;;;;;1.65;1.13;;;;;;;;;;10049208;28;20147;-75
2023/05/03 12:16:03;;;;;;;1.10;0.80;;;;;;;;;;10042341;28;20112;-75
2023/05/03 12:21:17;;;;;;;0.60;0.60;;;;;;;;;;9978884;28;20073;-76
2023/05/03 12:26:30;;;;;;;0.80;0.80;;;;;;;;;;9861635;29;20288;-77
2023/05/03 12:31:26;;;;;;;0.60;0.60;;;;;;;;;;9863162;29;20071;-75
2023/05/03 12:36:21;;;;;;;3.08;1.00;;;;;;;;;;9876515;28;20694;-74
2023/05/03 12:41:18;;;;;;;1.07;0.97;;;;;;;;;;9967637;28;20153;-75
2023/05/03 12:46:31;;;;;;;2.83;0.98;;;;;;;;;;10042542;28;20103;-75
2023/05/03 12:51:27;;;;;;;1.25;1.05;;;;;;;;;;10051884;28;20115;-73
2023/05/03 12:56:21;;;;;;;1.40;0.90;;;;;;;;;;10039684;28;20064;-75
2023/05/03 13:01:18;;;;;;;0.57;0.57;;;;;;;;;;10045135;28;20057;-76
2023/05/03 13:06:14;;;;;;;2.75;1.80;;;;;;;;;;10032827;28;20054;-74
2023/05/03 13:11:07;;;;;;;1.50;1.30;;;;;;;;;;10047002;28;20081;-74
2023/05/03 13:16:01;;;;;;;0.80;0.80;;;;;;;;;;10056829;28;20436;-73
2023/05/03 13:20:55;;;;;;;1.98;0.90;;;;;;;;;;10061085;28;20053;-73
2023/05/03 13:25:48;;;;;;;0.80;0.80;;;;;;;;;;10049325;28;20140;-73
2023/05/03 13:30:40;;;;;;;1.35;1.25;;;;;;;;;;10054352;28;20056;-73
2023/05/03 13:35:34;;;;;;;0.82;0.70;;;;;;;;;;10048969;28;20081;-73
2023/05/03 13:40:28;;;;;;;3.38;1.25;;;;;;;;;;10046942;28;20049;-73
2023/05/03 13:45:22;;;;;;;1.88;1.20;;;;;;;;;;10040377;28;20045;-73
2023/05/03 13:50:17;;;;;;;2.97;0.90;;;;;;;;;;10061220;28;20060;-73
2023/05/03 13:55:13;;;;;;;1.10;1.00;;;;;;;;;;10052244;28;20061;-73
2023/05/03 14:00:09;;;;;;;1.42;1.20;;;;;;;;;;10048118;28;20069;-72
2023/05/03 14:05:06;;;;;;;3.28;1.80;;;;;;;;;;10041976;28;20068;-73
2023/05/03 14:10:01;;;;;;;1.60;1.50;;;;;;;;;;10051240;28;20053;-72
2023/05/03 14:14:56;;;;;;;1.63;1.52;;;;;;;;;;10041272;28;20038;-73
2023/05/03 14:19:51;;;;;;;1.20;1.10;;;;;;;;;;10042731;28;20077;-73
2023/05/03 14:24:45;;;;;;;2.35;1.60;;;;;;;;;;10025168;28;20501;-73
2023/05/03 14:29:38;;;;;;;1.60;1.35;;;;;;;;;;10056951;28;20155;-73
2023/05/03 14:34:32;;;;;;;1.98;1.75;;;;;;;;;;10045031;28;20517;-73
2023/05/03 14:39:25;;;;;;;1.80;1.70;;;;;;;;;;10043000;28;20493;-73
2023/05/03 14:44:19;;;;;;;1.92;1.60;;;;;;;;;;10039480;28;20053;-73
2023/05/03 14:49:16;;;;;;;2.10;1.90;;;;;;;;;;10049814;28;20060;-73
2023/05/03 14:54:10;;;;;;;7.82;3.35;;;;;;;;;;10055766;28;20135;-73
2023/05/03 14:59:03;;;;;;;4.68;2.75;;;;;;;;;;10054441;28;20058;-75
2023/05/03 15:03:57;;;;;;;4.15;1.40;;;;;;;;;;10050488;28;20053;-73
2023/05/03 15:08:51;;;;;;;2.72;1.90;;;;;;;;;;10064903;28;20045;-72
2023/05/03 15:13:44;;;;;;;2.75;2.08;;;;;;;;;;10053850;28;20058;-72
2023/05/03 15:18:37;;;;;;;3.50;3.20;;;;;;;;;;10049438;28;20054;-72
2023/05/03 15:23:30;;;;;;;2.97;2.28;;;;;;;;;;10051961;28;20088;-72
2023/05/03 15:28:23;;;;;;;2.55;2.15;;;;;;;;;;10057757;28;20042;-71
2023/05/03 15:33:16;;;;;;;2.13;2.03;;;;;;;;;;10057159;28;20140;-74
2023/05/03 15:38:10;;;;;;;2.45;2.25;;;;;;;;;;10052039;28;20045;-74
2023/05/03 15:43:02;;;;;;;14.38;9.20;;;;;;;;;;10061849;28;20052;-71
2023/05/03 15:47:56;;;;;;;7.25;4.80;;;;;;;;;;10053528;28;20093;-76
2023/05/03 15:52:49;;;;;;;2.65;2.42;;;;;;;;;;10048391;28;20061;-72
2023/05/03 15:57:44;;;;;;;2.88;2.20;;;;;;;;;;10030822;28;20145;-71
2023/05/03 16:02:37;;;;;;;2.78;2.30;;;;;;;;;;10040784;28;20485;-78
2023/05/03 16:07:30;;;;;;;2.80;2.13;;;;;;;;;;10053424;28;20480;-76
2023/05/03 16:12:24;;;;;;;3.38;2.20;;;;;;;;;;10039760;28;20056;-69
2023/05/03 16:17:18;;;;;;;3.67;2.25;;;;;;;;;;10045691;28;21462;-79
2023/05/03 16:22:11;;;;;;;3.85;2.08;;;;;;;;;;10058251;28;20061;-81
2023/05/03 16:27:05;;;;;;;2.08;1.88;;;;;;;;;;10054039;28;20442;-76
2023/05/03 16:31:59;;;;;;;4.38;2.00;;;;;;;;;;10041276;28;20050;-73
2023/05/03 16:36:53;;;;;;;2.58;2.38;;;;;;;;;;10044004;28;20137;-74
2023/05/03 16:41:47;;;;;;;1.67;1.58;;;;;;;;;;10047501;28;20052;-73
2023/05/03 16:46:41;;;;;;;130.88;98.72;;;;;;;;;;10041028;28;20108;-77
2023/05/03 16:51:35;;;;;;;5.20;4.53;;;;;;;;;;10036942;28;20045;-71
2023/05/03 16:56:29;;;;;;;2.25;2.05;;;;;;;;;;10036239;28;20398;-72
2023/05/03 17:01:22;;;;;;;2.63;2.40;;;;;;;;;;10047668;28;20460;-72
2023/05/03 17:06:17;;;;;;;2.47;2.25;;;;;;;;;;10046761;28;20049;-72
2023/05/03 17:11:12;;;;;;;3.67;2.00;;;;;;;;;;10055501;28;20085;-70
2023/05/03 17:16:10;;;;;;;2.03;1.85;;;;;;;;;;10045726;28;20442;-70
2023/05/03 17:21:04;;;;;;;3.65;2.78;;;;;;;;;;10053753;28;20049;-70
2023/05/03 17:25:59;;;;;;;2.85;2.65;;;;;;;;;;10045286;28;20041;-71
2023/05/03 17:30:55;;;;;;;5.80;2.33;;;;;;;;;;10052532;28;20141;-71
2023/05/03 17:35:49;;;;;;;5.55;2.70;;;;;;;;;;10047598;28;20050;-71
2023/05/03 17:40:44;;;;;;;2.60;2.40;;;;;;;;;;10042342;28;20061;-72
2023/05/03 17:45:43;;;;;;;2.65;2.45;;;;;;;;;;10042704;28;20057;-74
2023/05/03 17:50:36;;;;;;;3.27;2.93;;;;;;;;;;10046487;28;20065;-73
2023/05/03 17:55:37;;;;;;;2.75;2.55;;;;;;;;;;10050686;28;20068;-73
2023/05/03 18:00:31;;;;;;;3.58;3.20;;;;;;;;;;10037549;28;20084;-73
2023/05/03 18:05:26;;;;;;;5.13;3.10;;;;;;;;;;10051932;28;20472;-74
2023/05/03 18:10:21;;;;;;;2.78;2.45;;;;;;;;;;10034959;28;20049;-78
2023/05/03 18:15:14;;;;;;;2.25;2.15;;;;;;;;;;10049697;28;20485;-77
2023/05/03 18:20:09;;;;;;;2.17;2.00;;;;;;;;;;10048935;28;20041;-76
2023/05/03 18:25:05;;;;;;;2.28;1.90;;;;;;;;;;10052525;28;20124;-77
2023/05/03 18:29:59;;;;;;;2.60;2.40;;;;;;;;;;10057361;28;20493;-75
2023/05/03 18:34:53;;;;;;;2.83;2.50;;;;;;;;;;10056749;28;20060;-76
2023/05/03 18:39:47;;;;;;;2.42;2.22;;;;;;;;;;10054740;28;20108;-75
2023/05/03 18:44:42;;;;;;;3.08;2.63;;;;;;;;;;10046952;28;20066;-72
2023/05/03 18:49:35;;;;;;;2.20;1.90;;;;;;;;;;10050056;28;20086;-73
2023/05/03 18:54:29;;;;;;;3.80;2.30;;;;;;;;;;10057588;28;20077;-70
2023/05/03 18:59:22;;;;;;;3.83;2.30;;;;;;;;;;10044269;28;20064;-73
2023/05/03 19:04:18;;;;;;;2.75;2.47;;;;;;;;;;10043669;28;20054;-69
2023/05/03 19:09:12;;;;;;;3.58;3.08;;;;;;;;;;10053360;28;20140;-73
2023/05/03 19:14:05;;;;;;;2.88;2.65;;;;;;;;;;10057220;28;20048;-73
2023/05/03 19:18:58;;;;;;;2.80;2.60;;;;;;;;;;10051838;28;20128;-77
2023/05/03 19:23:52;;;;;;;5.13;3.22;;;;;;;;;;10048219;28;20049;-71
2023/05/03 19:28:46;;;;;;;4.40;3.05;;;;;;;;;;10045438;28;20045;-74
2023/05/03 19:33:39;;;;;;;6.07;3.60;;;;;;;;;;10048341;28;20066;-74
2023/05/03 19:38:35;;;;;;;6.30;3.72;;;;;;;;;;10049084;28;20057;-76
2023/05/03 19:43:30;;;;;;;3.88;3.58;;;;;;;;;;10046350;28;20053;-79
2023/05/03 19:48:23;;;;;;;3.83;3.50;;;;;;;;;;10047327;28;20552;-79
2023/05/03 19:53:16;;;;;;;4.65;4.25;;;;;;;;;;10050375;28;20064;-76
2023/05/03 19:58:09;;;;;;;6.72;5.03;;;;;;;;;;10050995;28;20054;-76
2023/05/03 20:03:03;;;;;;;5.18;4.22;;;;;;;;;;10048465;28;20501;-73
2023/05/03 20:07:56;;;;;;;7.32;4.85;;;;;;;;;;10050061;28;20057;-75
2023/05/03 20:12:50;;;;;;;4.10;3.70;;;;;;;;;;10048386;28;20049;-76
2023/05/03 20:17:44;;;;;;;7.90;3.78;;;;;;;;;;10048544;28;20058;-76
2023/05/03 20:22:38;;;;;;;5.00;3.20;;;;;;;;;;10054431;28;20087;-76
2023/05/03 20:27:33;;;;;;;4.82;3.70;;;;;;;;;;10051202;28;20125;-81
2023/05/03 20:32:27;;;;;;;6.63;4.18;;;;;;;;;;10053739;28;20053;-74
2023/05/03 20:37:21;;;;;;;7.85;4.05;;;;;;;;;;10046882;28;20053;-76
2023/05/03 20:42:13;;;;;;;10.07;5.85;;;;;;;;;;10050393;28;20053;-77
2023/05/03 20:47:07;;;;;;;13.82;6.47;;;;;;;;;;10049526;28;20052;-75
2023/05/03 20:52:01;;;;;;;14.63;7.32;;;;;;;;;;10051282;28;20049;-77
2023/05/03 20:56:55;;;;;;;8.90;5.70;;;;;;;;;;10047635;28;20058;-79
2023/05/03 21:01:48;;;;;;;5.32;4.82;;;;;;;;;;10053138;28;20061;-81
2023/05/03 21:06:41;;;;;;;9.52;4.93;;;;;;;;;;10050836;28;20056;-75
2023/05/03 21:11:37;;;;;;;7.65;6.03;;;;;;;;;;10053596;28;20095;-79
2023/05/03 21:16:30;;;;;;;6.45;5.82;;;;;;;;;;10049959;28;20061;-82
2023/05/03 21:21:23;;;;;;;8.23;5.22;;;;;;;;;;10051753;28;20042;-80
2023/05/03 21:26:18;;;;;;;8.82;5.85;;;;;;;;;;10051690;28;20095;-80
2023/05/03 21:31:11;;;;;;;6.15;5.35;;;;;;;;;;10044199;28;20107;-81
2023/05/03 21:36:06;;;;;;;8.48;5.68;;;;;;;;;;10049597;28;20077;-80
2023/05/03 21:41:03;;;;;;;7.40;4.97;;;;;;;;;;10051316;28;20061;-82
2023/05/03 21:45:57;;;;;;;8.55;4.90;;;;;;;;;;10050562;28;20053;-80
2023/05/03 21:50:51;;;;;;;5.80;5.20;;;;;;;;;;10048339;28;20054;-79
2023/05/03 21:55:48;;;;;;;6.18;4.72;;;;;;;;;;10051082;28;20103;-80
2023/05/03 22:00:43;;;;;;;6.82;5.80;;;;;;;;;;10045761;28;20049;-78
2023/05/03 22:05:55;;;;;;;5.97;5.22;;;;;;;;;;10051459;28;20107;-79
2023/05/03 22:10:48;;;;;;;8.43;5.40;;;;;;;;;;10047991;28;20132;-75
2023/05/03 22:15:42;;;;;;;10.68;5.32;;;;;;;;;;10048361;28;20046;-76
2023/05/03 22:20:36;;;;;;;12.48;6.22;;;;;;;;;;10045806;28;20089;-76
2023/05/03 22:25:29;;;;;;;7.30;6.30;;;;;;;;;;10049020;28;20144;-76
2023/05/03 22:30:24;;;;;;;6.97;5.97;;;;;;;;;;10047771;28;20052;-76
2023/05/03 22:35:21;;;;;;;5.63;5.13;;;;;;;;;;10046927;28;20144;-75
2023/05/03 22:40:14;;;;;;;6.00;5.28;;;;;;;;;;10042045;28;20152;-81
2023/05/03 22:45:10;;;;;;;13.30;5.72;;;;;;;;;;10044383;28;20500;-76
2023/05/03 22:50:06;;;;;;;5.85;5.35;;;;;;;;;;10046372;28;20054;-77
2023/05/03 22:55:00;;;;;;;5.80;5.30;;;;;;;;;;10047836;28;20064;-73
2023/05/03 22:59:54;;;;;;;4.97;4.50;;;;;;;;;;10048615;28;20471;-75
2023/05/03 23:04:48;;;;;;;5.60;4.85;;;;;;;;;;10056654;28;20054;-75
2023/05/03 23:09:41;;;;;;;8.38;5.25;;;;;;;;;;10054662;28;20057;-74
2023/05/03 23:14:35;;;;;;;5.65;4.78;;;;;;;;;;10055808;28;20045;-74
2023/05/03 23:19:29;;;;;;;5.05;4.43;;;;;;;;;;10054527;28;20460;-73
2023/05/03 23:24:23;;;;;;;4.53;4.13;;;;;;;;;;10056761;28;20057;-74
2023/05/03 23:29:16;;;;;;;7.82;5.13;;;;;;;;;;10052755;28;20525;-74
2023/05/03 23:34:10;;;;;;;6.18;5.57;;;;;;;;;;10054544;28;20072;-73
2023/05/03 23:39:03;;;;;;;8.13;5.53;;;;;;;;;;10054107;28;20049;-74
2023/05/03 23:43:57;;;;;;;16.08;4.75;;;;;;;;;;10052920;28;20057;-75
2023/05/03 23:48:50;;;;;;;5.88;5.32;;;;;;;;;;10051269;28;20056;-76
2023/05/03 23:53:43;;;;;;;6.50;5.90;;;;;;;;;;10050003;28;20049;-75
2023/05/03 23:58:37;;;;;;;6.95;5.93;;;;;;;;;;10049488;28;20045;-74
